Time;durP1;ratioP1;P1;durP2;ratioP2;P2;SDS_P1;SDS_P2;PMS_P1;PMS_P2;Temp;Humidity;BMP_temperature;BMP_pressure;BME280_temperature;BME280_humidity;BME280_pressure;Samples;Min_cycle;Max_cycle;Signal;HPM_P1;HPM_P2
2023/03/11 00:04:36;;;;;;;0.63;0.45;;;;;;;4.10;67.75;99015.50;10400214;28;20460;-71
2023/03/11 00:09:38;;;;;;;1.10;0.70;;;;;;;4.14;66.81;99026.63;10398434;28;20045;-74
2023/03/11 00:14:39;;;;;;;0.95;0.57;;;;;;;4.16;65.54;99025.56;10399318;28;20079;-73
2023/03/11 00:19:40;;;;;;;0.80;0.50;;;;;;;4.19;65.35;99033.25;10381272;28;20072;-73
2023/03/11 00:24:42;;;;;;;1.05;0.85;;;;;;;4.24;65.53;99038.19;10379402;28;20049;-73
2023/03/11 00:29:44;;;;;;;1.30;0.50;;;;;;;4.33;65.34;99049.84;10378687;28;20067;-72
2023/03/11 00:34:45;;;;;;;2.42;0.90;;;;;;;3.92;65.45;99056.31;10399323;28;20052;-72
2023/03/11 00:39:47;;;;;;;1.15;0.47;;;;;;;3.84;65.89;99060.38;10379322;28;20335;-71
2023/03/11 00:44:48;;;;;;;2.10;0.85;;;;;;;3.80;65.93;99044.88;10397217;28;20495;-71
2023/03/11 00:49:49;;;;;;;2.40;0.75;;;;;;;3.81;66.59;99044.75;10396286;28;20202;-72
2023/03/11 00:54:51;;;;;;;1.75;0.82;;;;;;;3.71;66.26;99035.88;10390116;28;20056;-72
2023/03/11 00:59:52;;;;;;;1.65;0.50;;;;;;;3.63;67.52;99049.53;10382913;28;20665;-70
2023/03/11 01:04:54;;;;;;;1.33;0.68;;;;;;;3.39;66.72;99070.53;10393631;28;20045;-71
2023/03/11 01:09:56;;;;;;;0.90;0.40;;;;;;;3.45;66.79;99091.19;10396843;28;20059;-71
2023/03/11 01:14:57;;;;;;;6.43;0.85;;;;;;;3.50;66.57;99099.56;10396556;28;20068;-69
2023/03/11 01:19:59;;;;;;;1.55;0.60;;;;;;;3.66;66.32;99103.75;10393468;28;20061;-71
2023/03/11 01:25:00;;;;;;;2.83;0.55;;;;;;;3.78;66.60;99097.63;10395584;28;20587;-73
2023/03/11 01:30:02;;;;;;;1.23;0.65;;;;;;;3.67;66.30;99092.28;10398623;28;20075;-71
2023/03/11 01:35:04;;;;;;;1.48;0.60;;;;;;;3.79;66.20;99088.78;10396092;28;20052;-72
2023/03/11 01:40:08;;;;;;;2.60;0.50;;;;;;;3.77;66.58;99090.69;10396725;28;20044;-71
2023/03/11 01:45:27;;;;;;;2.17;0.77;;;;;;;3.86;66.48;99097.09;10394654;28;20465;-72
2023/03/11 01:50:39;;;;;;;2.70;0.60;;;;;;;3.69;66.60;99104.41;10394823;28;20094;-68
2023/03/11 01:55:41;;;;;;;2.88;0.70;;;;;;;3.76;67.45;99114.50;10391575;28;20100;-71
2023/03/11 02:00:43;;;;;;;1.67;0.90;;;;;;;3.78;67.10;99113.41;10392127;28;20151;-73
2023/03/11 02:05:46;;;;;;;2.33;0.70;;;;;;;3.73;67.76;99136.59;10394924;28;20251;-70
2023/03/11 02:10:51;;;;;;;2.35;0.75;;;;;;;3.60;68.62;99133.97;10391919;28;20511;-69
2023/03/11 02:15:52;;;;;;;1.40;0.55;;;;;;;3.57;68.25;99126.28;10394365;28;20053;-70
2023/03/11 02:21:09;;;;;;;2.28;0.90;;;;;;;3.41;68.02;99115.16;10377323;28;20060;-72
2023/03/11 02:26:31;;;;;;;1.75;0.70;;;;;;;3.26;67.45;99115.28;10375889;28;20067;-72
2023/03/11 02:31:35;;;;;;;1.17;0.85;;;;;;;3.27;66.95;99095.06;10381026;28;20053;-72
2023/03/11 02:36:39;;;;;;;1.70;0.87;;;;;;;3.16;66.56;99107.16;10397401;28;20041;-74
2023/03/11 02:41:45;;;;;;;2.70;0.60;;;;;;;3.11;65.73;99098.75;10394274;28;20048;-73
2023/03/11 02:46:47;;;;;;;5.43;1.23;;;;;;;3.14;66.08;99103.78;10393913;28;20053;-73
2023/03/11 02:51:48;;;;;;;2.40;0.95;;;;;;;3.15;65.57;99116.00;10393594;28;20345;-70
2023/03/11 02:56:50;;;;;;;2.28;0.85;;;;;;;3.16;64.86;99125.56;10380820;28;20060;-72
2023/03/11 03:01:51;;;;;;;2.88;1.10;;;;;;;3.02;65.27;99130.94;10388824;28;20330;-72
2023/03/11 03:06:52;;;;;;;5.47;1.23;;;;;;;2.99;65.44;99131.13;10377146;28;20049;-72
2023/03/11 03:11:54;;;;;;;2.83;1.40;;;;;;;3.02;66.42;99149.34;10403163;28;20161;-72
2023/03/11 03:16:56;;;;;;;2.72;1.10;;;;;;;3.07;65.47;99164.78;10399732;28;20076;-72
2023/03/11 03:21:57;;;;;;;3.53;0.90;;;;;;;3.14;65.17;99166.91;10381567;28;20511;-72
2023/03/11 03:26:59;;;;;;;2.63;0.80;;;;;;;3.23;65.51;99170.72;10402320;28;20135;-71
2023/03/11 03:32:01;;;;;;;3.83;0.90;;;;;;;3.18;65.62;99173.66;10395791;28;20360;-71
2023/03/11 03:37:02;;;;;;;2.17;1.00;;;;;;;3.27;64.77;99177.47;10397114;28;20060;-71
2023/03/11 03:42:04;;;;;;;2.67;1.15;;;;;;;3.12;65.49;99181.97;10381117;28;20526;-73
2023/03/11 03:47:06;;;;;;;2.35;0.95;;;;;;;3.12;65.55;99184.59;10379703;28;20397;-71
2023/03/11 03:52:08;;;;;;;5.38;1.63;;;;;;;3.14;66.11;99193.19;10404494;28;20060;-71
2023/03/11 03:57:10;;;;;;;1.77;0.82;;;;;;;3.41;65.30;99215.97;10400112;28;20589;-72
2023/03/11 04:02:11;;;;;;;4.25;1.38;;;;;;;3.06;65.63;99200.75;10401551;28;20060;-70
2023/03/11 04:07:13;;;;;;;2.20;1.30;;;;;;;3.15;64.84;99210.69;10399514;28;20075;-71
2023/03/11 04:12:16;;;;;;;2.05;1.10;;;;;;;3.26;65.00;99206.47;10399030;28;20061;-72
2023/03/11 04:17:17;;;;;;;1.23;1.13;;;;;;;3.25;64.87;99210.91;10397682;28;20075;-73
2023/03/11 04:22:19;;;;;;;2.88;1.55;;;;;;;3.12;64.41;99226.66;10381852;28;20372;-72
2023/03/11 04:27:20;;;;;;;3.88;1.60;;;;;;;3.15;65.24;99236.97;10394265;28;20056;-71
2023/03/11 04:32:22;;;;;;;2.33;1.92;;;;;;;3.26;64.73;99238.03;10381993;28;20049;-73
2023/03/11 04:37:27;;;;;;;3.05;1.25;;;;;;;3.39;64.01;99248.59;10379802;28;20100;-72
2023/03/11 04:42:28;;;;;;;4.90;1.23;;;;;;;3.55;64.07;99251.88;10396476;28;20245;-72
2023/03/11 04:47:29;;;;;;;3.58;1.92;;;;;;;3.63;63.58;99246.09;10393323;28;20462;-71
2023/03/11 04:52:31;;;;;;;2.95;1.73;;;;;;;3.66;63.72;99251.16;10395667;28;20435;-73
2023/03/11 04:57:32;;;;;;;2.88;1.45;;;;;;;3.64;64.04;99253.06;10375012;28;20297;-73
2023/03/11 05:02:34;;;;;;;3.42;1.60;;;;;;;3.59;64.44;99260.41;10399288;28;20049;-73
2023/03/11 05:07:36;;;;;;;6.53;1.98;;;;;;;3.66;64.13;99266.94;10392281;28;20056;-73
2023/03/11 05:12:37;;;;;;;2.35;1.42;;;;;;;3.53;64.22;99257.25;10398858;28;20113;-73
2023/03/11 05:17:38;;;;;;;5.70;2.13;;;;;;;3.60;64.18;99289.25;10403994;28;20080;-70
2023/03/11 05:22:40;;;;;;;2.85;1.20;;;;;;;3.65;63.36;99281.06;10384972;28;20057;-72
2023/03/11 05:27:41;;;;;;;4.45;2.00;;;;;;;3.65;62.57;99281.06;10400484;28;20049;-73
2023/03/11 05:32:43;;;;;;;2.35;1.33;;;;;;;3.72;62.17;99285.81;10397021;28;20049;-72
2023/03/11 05:37:48;;;;;;;2.80;1.98;;;;;;;3.39;62.40;99306.47;10396146;28;20060;-72
2023/03/11 05:42:50;;;;;;;3.72;1.77;;;;;;;3.60;63.34;99314.72;10404207;28;20227;-73
2023/03/11 05:47:51;;;;;;;3.63;2.10;;;;;;;3.79;62.75;99309.91;10395806;28;20049;-72
2023/03/11 05:52:53;;;;;;;3.53;1.80;;;;;;;3.83;63.21;99310.56;10398450;28;20481;-71
2023/03/11 05:57:54;;;;;;;6.38;2.28;;;;;;;3.75;63.84;99307.59;10395239;28;20573;-73
2023/03/11 06:02:56;;;;;;;4.72;2.58;;;;;;;3.96;63.88;99310.56;10384248;28;20049;-71
2023/03/11 06:07:57;;;;;;;4.03;2.13;;;;;;;4.06;63.54;99332.69;10397177;28;20061;-74
2023/03/11 06:12:58;;;;;;;4.97;2.30;;;;;;;4.06;64.14;99332.69;10401299;28;20055;-72
2023/03/11 06:18:00;;;;;;;3.20;1.98;;;;;;;4.10;63.37;99330.69;10398946;28;20059;-72
2023/03/11 06:23:01;;;;;;;4.07;1.90;;;;;;;4.19;62.55;99338.81;10380510;28;20607;-75
2023/03/11 06:28:03;;;;;;;5.07;1.83;;;;;;;4.24;63.08;99351.66;10399614;28;20052;-74
2023/03/11 06:33:05;;;;;;;4.70;2.63;;;;;;;4.30;62.44;99350.41;10418143;28;20053;-73
2023/03/11 06:38:06;;;;;;;5.22;1.90;;;;;;;4.03;62.71;99351.34;10397661;28;20055;-72
2023/03/11 06:43:07;;;;;;;4.45;1.67;;;;;;;4.28;62.58;99370.72;10426585;28;20076;-73
2023/03/11 06:48:09;;;;;;;4.80;1.50;;;;;;;4.37;61.14;99380.66;10443633;28;20048;-72
2023/03/11 06:53:10;;;;;;;4.18;1.80;;;;;;;3.98;61.07;99382.38;10423310;28;20570;-71
2023/03/11 06:58:12;;;;;;;4.68;2.15;;;;;;;4.28;61.50;99402.34;10377638;28;20182;-72
2023/03/11 07:03:13;;;;;;;2.80;1.30;;;;;;;4.30;61.33;99408.38;10403111;28;20090;-70
2023/03/11 07:08:15;;;;;;;2.60;1.73;;;;;;;4.38;60.39;99403.41;10406407;28;20423;-71
2023/03/11 07:13:16;;;;;;;3.35;1.75;;;;;;;4.45;59.84;99407.31;10381991;28;20098;-70
2023/03/11 07:18:18;;;;;;;5.82;2.20;;;;;;;4.33;59.10;99413.44;10384200;28;20129;-71
2023/03/11 07:23:20;;;;;;;3.85;1.63;;;;;;;4.12;58.42;99423.63;10402502;28;20491;-70
2023/03/11 07:28:23;;;;;;;1.85;1.35;;;;;;;4.20;58.10;99423.94;10404754;28;20064;-69
2023/03/11 07:33:25;;;;;;;4.80;2.03;;;;;;;4.05;57.88;99436.34;10400311;28;21722;-69
2023/03/11 07:38:26;;;;;;;5.65;2.25;;;;;;;3.82;55.28;99459.78;10398280;28;20235;-69
2023/03/11 07:43:27;;;;;;;5.88;1.90;;;;;;;4.11;55.99;99450.91;10373152;28;20562;-69
2023/03/11 07:48:29;;;;;;;3.28;1.70;;;;;;;4.57;53.55;99469.72;10401227;28;20057;-69
2023/03/11 07:53:32;;;;;;;4.20;2.38;;;;;;;4.88;53.61;99475.53;10398644;28;20916;-70
2023/03/11 07:58:33;;;;;;;6.05;2.33;;;;;;;4.75;51.35;99490.53;10396571;28;20517;-72
2023/03/11 08:03:36;;;;;;;4.38;1.83;;;;;;;4.45;51.58;99499.56;10379013;28;20067;-71
2023/03/11 08:08:37;;;;;;;5.75;2.42;;;;;;;4.43;52.07;99499.66;10405292;28;20048;-68
2023/03/11 08:13:39;;;;;;;5.75;2.13;;;;;;;4.39;52.74;99499.97;10391291;28;20558;-70
2023/03/11 08:18:41;;;;;;;4.63;2.30;;;;;;;4.43;52.87;99509.38;10409492;28;20048;-71
2023/03/11 08:23:46;;;;;;;4.18;1.60;;;;;;;4.35;52.15;99522.19;10405069;28;20045;-69
2023/03/11 08:28:48;;;;;;;3.17;1.65;;;;;;;4.54;51.90;99527.94;10402689;28;20422;-69
2023/03/11 08:33:52;;;;;;;5.63;2.22;;;;;;;4.95;51.04;99553.31;10373129;28;20064;-69
2023/03/11 08:38:54;;;;;;;2.07;1.50;;;;;;;5.28;50.68;99544.00;10382928;28;20080;-71
2023/03/11 08:43:56;;;;;;;4.30;1.70;;;;;;;5.86;49.75;99563.75;10400841;28;20167;-69
2023/03/11 08:48:58;;;;;;;4.80;1.50;;;;;;;6.30;49.06;99559.69;10401534;28;20332;-70
2023/03/11 08:54:02;;;;;;;2.40;1.80;;;;;;;6.12;47.97;99565.34;10402108;28;20049;-74
2023/03/11 08:59:03;;;;;;;8.27;2.45;;;;;;;6.29;47.85;99550.94;10381311;28;20593;-72
2023/03/11 09:04:05;;;;;;;4.10;1.90;;;;;;;6.04;48.40;99554.50;10403911;28;20057;-70
2023/03/11 09:09:06;;;;;;;2.72;1.67;;;;;;;5.16;49.83;99565.94;10400438;28;20563;-68
2023/03/11 09:14:07;;;;;;;4.35;1.67;;;;;;;4.80;51.50;99577.22;10393889;28;20060;-68
2023/03/11 09:19:09;;;;;;;4.35;2.28;;;;;;;4.96;51.29;99583.16;10396917;28;20048;-71
2023/03/11 09:24:10;;;;;;;5.85;2.25;;;;;;;5.19;51.50;99581.56;10401935;28;20138;-72
2023/03/11 09:29:11;;;;;;;3.40;1.27;;;;;;;6.21;49.14;99571.78;10400896;28;20056;-71
2023/03/11 09:34:14;;;;;;;3.55;1.10;;;;;;;7.21;45.59;99563.44;10393009;28;20072;-72
2023/03/11 09:39:16;;;;;;;2.85;1.30;;;;;;;8.35;52.25;99591.50;10397568;28;20067;-70
2023/03/11 09:44:37;;;;;;;1.83;0.73;;;;;;;8.06;42.03;99578.81;10403785;28;20075;-70
2023/03/11 09:49:44;;;;;;;3.67;1.00;;;;;;;7.79;41.29;99584.47;10405162;28;20053;-71
2023/03/11 09:54:49;;;;;;;6.03;1.60;;;;;;;8.44;41.63;99584.63;10399708;28;20143;-70
2023/03/11 09:59:51;;;;;;;3.47;1.25;;;;;;;8.53;40.46;99575.03;10398991;28;20051;-71
2023/03/11 10:05:20;;;;;;;2.30;0.60;;;;;;;9.32;37.48;99569.28;10397266;28;20052;-72
2023/03/11 10:10:23;;;;;;;3.78;1.23;;;;;;;10.26;37.56;99580.50;10379879;28;20214;-70
2023/03/11 10:15:51;;;;;;;3.10;1.33;;;;;;;11.34;35.89;99574.28;10379553;28;20491;-70
2023/03/11 10:21:10;;;;;;;3.50;1.33;;;;;;;10.12;36.26;99580.91;10400306;28;20294;-71
2023/03/11 10:26:36;;;;;;;3.50;1.40;;;;;;;9.15;38.99;99590.16;10409059;28;20698;-70
2023/03/11 10:32:23;;;;;;;2.25;0.85;;;;;;;8.89;37.71;99588.88;10410086;28;20063;-70
2023/03/11 10:37:36;;;;;;;4.05;0.73;;;;;;;8.25;38.20;99580.78;10375536;28;20170;-71
2023/03/11 10:42:52;;;;;;;2.78;1.52;;;;;;;8.61;36.89;99585.88;10411584;28;20049;-71
2023/03/11 10:47:57;;;;;;;3.38;0.82;;;;;;;8.87;37.41;99591.66;10390887;28;20064;-71
2023/03/11 10:53:18;;;;;;;4.95;0.95;;;;;;;9.95;35.49;99581.56;10412997;28;20059;-69
2023/03/11 10:58:26;;;;;;;3.30;1.00;;;;;;;9.15;36.22;99590.16;10424180;28;20128;-71
2023/03/11 11:03:28;;;;;;;2.42;0.75;;;;;;;8.44;38.89;99593.41;10422161;28;20052;-72
2023/03/11 11:08:32;;;;;;;1.70;0.75;;;;;;;8.15;38.58;99593.09;10386557;28;20045;-71
2023/03/11 11:13:34;;;;;;;3.25;1.33;;;;;;;7.93;40.19;99608.09;10402395;28;20068;-70
2023/03/11 11:18:44;;;;;;;4.40;1.20;;;;;;;7.72;41.25;99600.03;10404857;28;20056;-70
2023/03/11 11:24:08;;;;;;;2.40;1.00;;;;;;;7.47;42.19;99598.47;10383172;28;20053;-70
2023/03/11 11:29:09;;;;;;;4.07;1.33;;;;;;;7.57;40.90;99603.91;10399755;28;20472;-71
2023/03/11 11:34:32;;;;;;;5.57;0.93;;;;;;;7.22;41.07;99596.88;10389179;28;20057;-70
2023/03/11 11:39:51;;;;;;;4.30;1.00;;;;;;;7.38;41.13;99602.66;10398284;28;20040;-70
2023/03/11 11:45:18;;;;;;;5.25;1.50;;;;;;;7.44;41.16;99609.28;10402499;28;20045;-70
2023/03/11 11:50:30;;;;;;;2.10;1.00;;;;;;;7.29;40.47;99608.69;10400882;28;20123;-69
2023/03/11 11:55:32;;;;;;;3.83;1.35;;;;;;;7.42;40.28;99609.41;10400057;28;20046;-69
2023/03/11 12:01:02;;;;;;;4.18;1.58;;;;;;;7.32;39.11;99613.72;10394961;28;20075;-69
2023/03/11 12:06:15;;;;;;;3.05;1.10;;;;;;;7.36;38.46;99609.91;10396047;28;20148;-69
2023/03/11 12:11:25;;;;;;;2.50;1.15;;;;;;;7.37;40.09;99597.50;10393453;28;20511;-70
2023/03/11 12:16:46;;;;;;;5.13;1.25;;;;;;;7.82;39.84;99591.34;10398179;28;20049;-69
2023/03/11 12:22:29;;;;;;;3.55;2.22;;;;;;;7.86;39.28;99600.75;10399669;28;20060;-70
2023/03/11 12:27:54;;;;;;;2.20;0.93;;;;;;;7.61;38.95;99595.59;10179552;28;20247;-71
2023/03/11 12:33:05;;;;;;;;;;;;;;;6.51;40.31;99602.19;10365028;28;20142;-72
2023/03/11 12:38:20;;;;;;;3.53;0.73;;;;;;;6.45;41.03;99597.38;10400088;28;20369;-70
2023/03/11 12:43:47;;;;;;;3.58;1.15;;;;;;;6.48;40.43;99595.31;10392874;28;20103;-69
2023/03/11 12:49:06;;;;;;;1.60;1.20;;;;;;;6.53;42.09;99601.13;10390872;28;20049;-69
2023/03/11 12:54:26;;;;;;;3.03;0.90;;;;;;;7.21;40.08;99593.38;10397386;28;20049;-69
2023/03/11 12:59:42;;;;;;;4.45;0.75;;;;;;;9.47;36.06;99599.88;10380063;28;20136;-73
2023/03/11 13:04:58;;;;;;;1.50;0.60;;;;;;;9.01;36.83;99604.63;10391050;28;20203;-71
2023/03/11 13:10:11;;;;;;;2.70;0.95;;;;;;;8.10;37.82;99616.50;10382415;28;21160;-71
2023/03/11 13:15:26;;;;;;;3.47;1.10;;;;;;;7.78;38.19;99609.31;10396119;28;20082;-69
2023/03/11 13:20:42;;;;;;;;;;;;;;;7.73;38.58;99609.69;10394248;28;20453;-69
2023/03/11 13:25:47;;;;;;;4.90;0.60;;;;;;;7.78;38.62;99619.91;10396201;28;19925;-70
2023/03/11 13:31:12;;;;;;;4.10;0.90;;;;;;;7.65;37.85;99625.31;10396748;28;20068;-71
2023/03/11 13:36:28;;;;;;;3.42;1.00;;;;;;;7.35;38.84;99626.72;10399271;28;20292;-70
2023/03/11 13:41:33;;;;;;;2.40;1.30;;;;;;;7.67;37.85;99623.41;10399659;28;20052;-71
2023/03/11 13:46:38;;;;;;;2.13;0.80;;;;;;;7.98;37.94;99639.53;10396766;28;20612;-70
2023/03/11 13:51:44;;;;;;;1.20;0.80;;;;;;;7.88;37.80;99635.91;10396920;28;20052;-71
2023/03/11 13:56:52;;;;;;;1.63;0.80;;;;;;;7.68;37.03;99634.84;10389224;28;20551;-72
2023/03/11 14:02:13;;;;;;;2.42;0.77;;;;;;;7.61;37.23;99653.88;10392932;28;20044;-70
2023/03/11 14:07:33;;;;;;;3.67;1.25;;;;;;;7.17;38.10;99652.81;10368932;28;20139;-71
2023/03/11 14:12:34;;;;;;;5.05;0.68;;;;;;;7.15;38.50;99661.84;10394111;28;20068;-70
2023/03/11 14:17:35;;;;;;;1.65;0.82;;;;;;;7.44;37.99;99649.84;10397853;28;20127;-72
2023/03/11 14:22:37;;;;;;;3.88;1.00;;;;;;;7.57;37.11;99646.28;10400149;28;20064;-71
2023/03/11 14:27:44;;;;;;;2.88;0.80;;;;;;;7.49;37.85;99651.31;10396307;28;20636;-69
2023/03/11 14:33:19;;;;;;;3.10;1.45;;;;;;;7.51;37.60;99657.34;10394951;28;20064;-72
2023/03/11 14:38:24;;;;;;;2.35;0.80;;;;;;;7.22;38.31;99648.03;10377463;28;20057;-70
2023/03/11 14:43:28;;;;;;;;;;;;;;;7.29;38.72;99639.59;10394810;28;20142;-69
2023/03/11 14:48:38;;;;;;;3.72;1.13;;;;;;;7.50;36.83;99631.81;10393967;28;20389;-70
2023/03/11 14:53:47;;;;;;;3.85;1.17;;;;;;;7.68;36.19;99642.78;10386431;28;20394;-71
2023/03/11 14:58:59;;;;;;;3.42;0.90;;;;;;;7.95;37.55;99647.72;10391376;28;20150;-68
2023/03/11 15:04:13;;;;;;;2.22;0.98;;;;;;;7.97;36.79;99646.63;10392503;28;20084;-70
2023/03/11 15:09:19;;;;;;;2.90;0.70;;;;;;;8.05;36.44;99648.66;10381669;28;20056;-69
2023/03/11 15:14:27;;;;;;;1.67;0.65;;;;;;;8.24;35.16;99647.19;10399612;28;20140;-69
2023/03/11 15:19:30;;;;;;;1.52;0.80;;;;;;;8.37;34.93;99657.66;10399429;28;20245;-69
2023/03/11 15:24:32;;;;;;;0.90;0.50;;;;;;;8.20;34.94;99648.44;10403522;28;20044;-69
2023/03/11 15:29:35;;;;;;;3.03;1.10;;;;;;;8.28;35.65;99652.13;10396995;28;20045;-70
2023/03/11 15:34:37;;;;;;;3.05;0.98;;;;;;;8.33;35.12;99643.78;10395411;28;20306;-70
2023/03/11 15:39:43;;;;;;;3.50;0.80;;;;;;;8.05;35.45;99661.94;10388535;28;20083;-70
2023/03/11 15:45:10;;;;;;;2.65;0.90;;;;;;;7.85;35.36;99662.66;10392527;28;20080;-70
2023/03/11 15:50:22;;;;;;;1.48;0.70;;;;;;;7.85;35.56;99660.00;10378723;28;20067;-69
2023/03/11 15:55:27;;;;;;;1.67;0.60;;;;;;;7.74;36.42;99671.44;10398693;28;20102;-71
2023/03/11 16:00:28;;;;;;;3.40;0.90;;;;;;;7.60;36.38;99667.22;10398005;28;20291;-70
2023/03/11 16:05:29;;;;;;;2.05;1.00;;;;;;;7.62;36.89;99683.84;10397291;28;20090;-71
2023/03/11 16:10:31;;;;;;;2.05;0.93;;;;;;;7.30;36.59;99679.22;10398240;28;20193;-70
2023/03/11 16:15:35;;;;;;;3.05;1.23;;;;;;;7.42;38.50;99683.56;10398483;28;20044;-70
2023/03/11 16:20:50;;;;;;;1.77;0.90;;;;;;;7.27;37.52;99687.38;10379977;28;20053;-70
2023/03/11 16:25:59;;;;;;;1.30;0.70;;;;;;;7.26;38.03;99685.69;10379113;28;20048;-69
2023/03/11 16:31:00;;;;;;;4.82;0.70;;;;;;;7.18;38.42;99691.56;10392233;28;20045;-69
2023/03/11 16:42:24;;;;;;;1.75;1.00;;;;;;;7.01;38.04;99700.78;10401053;28;20052;-68
2023/03/11 16:47:25;;;;;;;1.48;0.88;;;;;;;7.02;39.05;99706.91;10405472;28;20140;-69
2023/03/11 16:52:27;;;;;;;2.38;0.90;;;;;;;6.80;40.13;99703.22;10387253;28;20068;-68
2023/03/11 16:57:28;;;;;;;2.72;0.85;;;;;;;6.63;39.44;99707.06;10383074;28;20099;-69
2023/03/11 17:02:30;;;;;;;6.07;1.33;;;;;;;6.53;39.84;99706.91;10407462;28;20122;-69
2023/03/11 17:07:32;;;;;;;1.45;0.80;;;;;;;6.39;39.70;99693.00;10388901;28;20060;-72
2023/03/11 17:12:34;;;;;;;2.38;0.82;;;;;;;6.39;40.54;99712.34;10394182;28;20688;-69
2023/03/11 17:17:36;;;;;;;3.35;1.10;;;;;;;6.33;39.52;99715.41;10394940;28;20049;-68
2023/03/11 17:22:38;;;;;;;3.13;1.33;;;;;;;6.33;40.22;99718.91;10375980;28;20557;-70
2023/03/11 17:27:39;;;;;;;1.48;0.70;;;;;;;6.29;40.59;99727.16;10392164;28;20041;-69
2023/03/11 17:32:40;;;;;;;4.63;0.85;;;;;;;6.12;40.41;99733.66;10394650;28;20065;-70
2023/03/11 17:37:42;;;;;;;3.83;1.23;;;;;;;6.17;40.30;99747.38;10395531;28;20190;-74
2023/03/11 17:42:44;;;;;;;2.95;1.30;;;;;;;6.13;40.05;99751.19;10389296;28;20191;-71
2023/03/11 17:47:45;;;;;;;7.50;6.80;;;;;;;6.08;40.83;99758.59;10393679;28;20057;-70
2023/03/11 17:52:46;;;;;;;4.38;3.58;;;;;;;6.00;41.62;99762.63;10389655;28;20593;-69
2023/03/11 17:57:50;;;;;;;8.57;5.88;;;;;;;5.86;41.53;99757.41;10392664;28;20519;-70
2023/03/11 18:02:52;;;;;;;5.15;3.28;;;;;;;5.93;42.19;99766.59;10393186;28;20090;-69
2023/03/11 18:07:53;;;;;;;7.95;5.10;;;;;;;5.99;42.56;99766.22;10379990;28;20061;-69
2023/03/11 18:12:55;;;;;;;44.28;40.05;;;;;;;5.94;42.30;99781.50;10397110;28;20072;-69
2023/03/11 18:17:56;;;;;;;17.08;15.43;;;;;;;5.82;42.96;99780.56;10398596;28;20049;-68
2023/03/11 18:22:58;;;;;;;9.63;8.38;;;;;;;5.89;42.63;99796.81;10394350;28;20526;-68
2023/03/11 18:27:59;;;;;;;9.18;4.65;;;;;;;5.93;42.46;99803.59;10394097;28;20462;-68
2023/03/11 18:33:00;;;;;;;6.13;4.05;;;;;;;5.85;43.30;99803.25;10393903;28;20738;-69
2023/03/11 18:38:02;;;;;;;7.97;4.13;;;;;;;5.78;43.89;99794.06;10391080;28;20154;-70
2023/03/11 18:43:03;;;;;;;5.38;3.55;;;;;;;5.81;44.42;99800.00;10398350;28;20284;-68
2023/03/11 18:48:05;;;;;;;6.78;4.13;;;;;;;5.77;43.79;99805.59;10402051;28;20048;-71
2023/03/11 18:53:07;;;;;;;6.80;3.55;;;;;;;5.73;43.84;99806.72;10401427;28;21726;-70
2023/03/11 18:58:09;;;;;;;4.38;3.42;;;;;;;5.71;44.23;99809.47;10398649;28;20516;-68
2023/03/11 19:03:11;;;;;;;9.98;6.53;;;;;;;5.63;43.76;99803.84;10401756;28;20053;-68
2023/03/11 19:08:13;;;;;;;6.90;3.80;;;;;;;5.55;44.00;99788.53;10420200;28;20080;-70
2023/03/11 19:13:18;;;;;;;4.30;2.97;;;;;;;5.53;44.59;99801.00;10431111;28;20103;-69
2023/03/11 19:18:19;;;;;;;6.15;4.15;;;;;;;5.41;45.09;99785.97;10404320;28;20102;-69
2023/03/11 19:23:21;;;;;;;8.63;5.45;;;;;;;5.52;45.84;99801.94;10433391;28;20057;-68
2023/03/11 19:28:23;;;;;;;10.73;7.28;;;;;;;5.53;46.39;99816.00;10441840;28;20048;-69
2023/03/11 19:33:25;;;;;;;7.63;5.70;;;;;;;5.44;46.58;99801.63;10447539;28;20396;-69
2023/03/11 19:38:26;;;;;;;10.07;8.23;;;;;;;5.37;45.56;99809.06;10431583;28;20052;-69
2023/03/11 19:43:28;;;;;;;11.55;8.50;;;;;;;5.31;45.68;99812.13;10409107;28;22388;-68
2023/03/11 19:48:31;;;;;;;12.45;7.85;;;;;;;5.38;46.18;99813.41;10406014;28;20067;-69
2023/03/11 19:53:35;;;;;;;10.20;7.10;;;;;;;5.36;45.71;99809.19;10400640;28;20215;-69
2023/03/11 19:58:39;;;;;;;65.70;40.43;;;;;;;5.24;46.07;99816.09;10385480;28;20044;-68
2023/03/11 20:03:41;;;;;;;82.85;50.63;;;;;;;5.01;46.70;99822.88;10400612;28;21155;-68
2023/03/11 20:08:43;;;;;;;22.67;18.42;;;;;;;4.90;47.01;99828.84;10401375;28;20118;-69
2023/03/11 20:13:44;;;;;;;15.93;12.05;;;;;;;4.94;45.98;99835.63;10402201;28;20138;-68
2023/03/11 20:18:49;;;;;;;26.42;20.40;;;;;;;4.95;46.47;99832.03;10399406;28;20512;-68
2023/03/11 20:23:55;;;;;;;17.15;13.65;;;;;;;5.05;47.25;99837.56;10394988;28;20429;-69
2023/03/11 20:28:56;;;;;;;12.25;9.30;;;;;;;5.02;46.83;99827.22;10383804;28;20480;-69
2023/03/11 20:33:59;;;;;;;12.07;8.50;;;;;;;5.03;47.11;99847.34;10403141;28;20448;-69
2023/03/11 20:39:02;;;;;;;11.38;8.13;;;;;;;5.03;46.81;99855.28;10400652;28;20044;-70
2023/03/11 20:44:06;;;;;;;10.90;6.75;;;;;;;5.07;47.33;99851.50;10387031;28;20187;-69
2023/03/11 20:49:08;;;;;;;12.35;8.43;;;;;;;5.03;47.47;99844.72;10400748;28;20167;-72
2023/03/11 20:54:10;;;;;;;10.07;7.35;;;;;;;4.93;46.97;99858.50;10401397;28;20056;-70
2023/03/11 20:59:15;;;;;;;12.10;8.38;;;;;;;4.89;47.93;99846.44;10400014;28;20060;-68
2023/03/11 21:04:17;;;;;;;12.05;7.93;;;;;;;4.85;48.75;99852.88;10400324;28;20052;-68
2023/03/11 21:09:18;;;;;;;12.30;7.50;;;;;;;4.74;49.00;99848.28;10402178;28;20106;-72
2023/03/11 21:14:20;;;;;;;7.07;6.05;;;;;;;4.76;49.50;99853.47;10400279;28;20155;-70
2023/03/11 21:19:21;;;;;;;7.95;6.13;;;;;;;4.74;49.56;99860.59;10399256;28;20052;-70
2023/03/11 21:24:23;;;;;;;12.00;7.32;;;;;;;4.69;49.56;99862.69;10392922;28;20513;-70
2023/03/11 21:29:24;;;;;;;8.75;6.22;;;;;;;4.73;49.40;99870.31;10402096;28;20140;-68
2023/03/11 21:34:26;;;;;;;11.32;8.32;;;;;;;4.60;49.48;99861.47;10378459;28;20068;-70
2023/03/11 21:39:28;;;;;;;9.50;7.20;;;;;;;4.51;48.84;99865.50;10394963;28;20393;-69
2023/03/11 21:44:29;;;;;;;10.63;5.78;;;;;;;4.47;48.52;99857.91;10380563;28;20052;-69
2023/03/11 21:49:31;;;;;;;7.68;5.10;;;;;;;4.36;48.19;99861.19;10399032;28;20136;-68
2023/03/11 21:54:32;;;;;;;10.60;5.10;;;;;;;4.29;48.64;99855.44;10381321;28;20045;-68
2023/03/11 21:59:34;;;;;;;8.50;5.57;;;;;;;4.36;49.15;99871.72;10397821;28;20055;-69
2023/03/11 22:04:35;;;;;;;10.32;4.88;;;;;;;4.26;48.36;99866.16;10397846;28;20052;-68
2023/03/11 22:09:37;;;;;;;7.53;5.90;;;;;;;4.15;48.75;99874.72;10389106;28;20091;-67
2023/03/11 22:14:38;;;;;;;9.75;6.05;;;;;;;4.11;49.42;99877.63;10404962;28;20120;-70
2023/03/11 22:19:40;;;;;;;14.65;12.30;;;;;;;3.99;50.74;99879.19;10395947;28;20091;-66
2023/03/11 22:24:42;;;;;;;21.10;14.57;;;;;;;4.06;51.22;99868.19;10407471;28;20432;-70
2023/03/11 22:29:43;;;;;;;14.75;13.00;;;;;;;4.12;51.32;99881.97;10412806;28;20048;-69
2023/03/11 22:34:44;;;;;;;14.93;12.20;;;;;;;4.11;50.96;99878.47;10412966;28;20076;-67
2023/03/11 22:39:46;;;;;;;13.55;11.07;;;;;;;4.16;51.12;99886.09;10408170;28;20500;-72
2023/03/11 22:44:47;;;;;;;12.23;10.25;;;;;;;4.06;50.59;99877.91;10415380;28;20375;-70
2023/03/11 22:49:49;;;;;;;15.63;11.63;;;;;;;4.03;51.11;99872.81;10413173;28;20251;-70
2023/03/11 22:54:50;;;;;;;10.98;9.75;;;;;;;4.07;50.85;99872.53;10412828;28;20060;-67
2023/03/11 22:59:51;;;;;;;12.95;9.52;;;;;;;3.94;51.48;99886.53;10394303;28;20155;-67
2023/03/11 23:04:53;;;;;;;13.30;11.90;;;;;;;3.85;52.41;99883.50;10412292;28;20071;-71
2023/03/11 23:09:54;;;;;;;14.60;11.18;;;;;;;3.77;52.91;99883.09;10401260;28;20056;-72
2023/03/11 23:14:56;;;;;;;13.77;11.80;;;;;;;3.62;53.81;99876.94;10410806;28;20048;-71
2023/03/11 23:19:57;;;;;;;15.32;12.20;;;;;;;3.60;54.11;99888.47;10410055;28;20470;-70
2023/03/11 23:25:05;;;;;;;17.13;13.05;;;;;;;3.52;54.49;99892.41;10405862;28;20136;-69
2023/03/11 23:30:08;;;;;;;13.98;11.73;;;;;;;3.53;54.94;99894.09;10407509;28;20056;-68
2023/03/11 23:35:10;;;;;;;16.35;13.00;;;;;;;3.43;55.28;99890.28;10403864;28;20053;-70
2023/03/11 23:40:12;;;;;;;15.35;12.27;;;;;;;3.40;55.55;99887.84;10401285;28;20492;-70
2023/03/11 23:45:13;;;;;;;18.02;14.13;;;;;;;3.38;55.46;99873.06;10403721;28;20722;-66
2023/03/11 23:50:15;;;;;;;15.68;12.35;;;;;;;3.31;55.83;99885.72;10398846;28;20366;-71
2023/03/11 23:55:16;;;;;;;15.48;12.70;;;;;;;3.34;55.70;99894.28;10407563;28;20055;-69
